createdAt,value
2023-03-12T00:01:21.958Z,96877.11
2023-03-12T00:03:51.343Z,96882.70
2023-03-12T00:06:21.006Z,96882.17
2023-03-12T00:08:56.378Z,96873.19
2023-03-12T00:11:25.617Z,96896.59
2023-03-12T00:13:55.770Z,96903.48
2023-03-12T00:16:24.325Z,96905.40
2023-03-12T00:18:53.676Z,96905.45
2023-03-12T00:21:22.654Z,96905.13
2023-03-12T00:23:54.615Z,96913.86
2023-03-12T00:26:23.002Z,96923.13
2023-03-12T00:28:51.584Z,96935.16
2023-03-12T00:31:24.412Z,96937.86
2023-03-12T00:33:54.555Z,96934.15
2023-03-12T00:36:25.027Z,96944.36
2023-03-12T00:38:54.927Z,96948.88
2023-03-12T00:41:23.660Z,96950.60
2023-03-12T00:43:52.103Z,96955.83
2023-03-12T00:46:20.645Z,96960.37
2023-03-12T00:48:49.160Z,96970.48
2023-03-12T00:51:17.646Z,96970.48
2023-03-12T00:53:46.332Z,96974.36
2023-03-12T00:56:15.018Z,96983.09
2023-03-12T00:58:43.502Z,96995.20
2023-03-12T01:01:12.046Z,96994.40
2023-03-12T01:03:40.803Z,97005.98
2023-03-12T01:06:09.613Z,97005.52
2023-03-12T01:08:38.869Z,97004.18
2023-03-12T01:11:08.069Z,96999.96
2023-03-12T01:13:36.553Z,97000.30
2023-03-12T01:16:05.664Z,96995.52
2023-03-12T01:18:34.442Z,96998.30
2023-03-12T01:21:03.436Z,97002.55
2023-03-12T01:23:31.917Z,97016.39
2023-03-12T01:26:00.813Z,97032.22
2023-03-12T01:28:29.500Z,97038.29
2023-03-12T01:30:57.882Z,97041.73
2023-03-12T01:33:27.098Z,97039.79
2023-03-12T01:35:55.553Z,97035.99
2023-03-12T01:38:24.053Z,97044.47
2023-03-12T01:40:56.416Z,97043.92
2023-03-12T01:43:25.309Z,97051.72
2023-03-12T01:46:19.288Z,97057.20
2023-03-12T01:48:50.335Z,97060.38
2023-03-12T01:51:18.711Z,97071.09
2023-03-12T01:53:48.732Z,97075.84
2023-03-12T01:56:17.672Z,97069.70
2023-03-12T01:58:49.894Z,97071.67
2023-03-12T02:01:18.844Z,97078.34
2023-03-12T02:03:49.113Z,97083.02
2023-03-12T02:06:18.005Z,97085.24
2023-03-12T02:08:46.799Z,97079.58
2023-03-12T02:11:17.656Z,97095.33
2023-03-12T02:13:46.529Z,97099.86
2023-03-12T02:16:16.916Z,97107.45
2023-03-12T02:18:46.360Z,97112.56
2023-03-12T02:21:20.990Z,97128.79
2023-03-12T02:24:14.062Z,97137.75
2023-03-12T02:26:43.659Z,97139.79
2023-03-12T02:29:12.158Z,97147.20
2023-03-12T02:31:44.729Z,97150.55
2023-03-12T02:34:14.230Z,97159.55
2023-03-12T02:36:45.992Z,97163.52
2023-03-12T02:39:15.392Z,97174.39
2023-03-12T02:41:50.633Z,97174.63
2023-03-12T02:44:22.819Z,97170.00
2023-03-12T02:46:56.019Z,97181.58
2023-03-12T02:49:27.665Z,97187.90
2023-03-12T02:51:56.443Z,97194.27
2023-03-12T02:54:27.588Z,97200.07
2023-03-12T02:56:57.309Z,97199.73
2023-03-12T02:59:27.009Z,97202.80
2023-03-12T03:01:58.695Z,97208.09
2023-03-12T03:04:29.227Z,97215.09
2023-03-12T03:06:57.606Z,97215.23
2023-03-12T03:09:26.281Z,97219.04
2023-03-12T03:11:57.224Z,97232.67
2023-03-12T03:14:33.710Z,97239.05
2023-03-12T03:17:02.166Z,97243.41
2023-03-12T03:19:31.194Z,97242.84
2023-03-12T03:22:04.857Z,97243.23
2023-03-12T03:24:36.468Z,97244.63
2023-03-12T03:27:04.998Z,97246.54
2023-03-12T03:29:34.707Z,97244.19
2023-03-12T03:32:04.418Z,97245.83
2023-03-12T03:34:32.896Z,97256.27
2023-03-12T03:37:01.387Z,97261.02
2023-03-12T03:39:30.679Z,97271.13
2023-03-12T03:42:00.287Z,97274.65
2023-03-12T03:44:30.720Z,97280.14
2023-03-12T03:47:02.891Z,97281.48
2023-03-12T03:49:32.289Z,97287.81
2023-03-12T03:52:00.875Z,97294.73
2023-03-12T03:54:34.783Z,97302.03
2023-03-12T03:57:03.980Z,97302.71
2023-03-12T03:59:37.174Z,97304.67
2023-03-12T04:02:05.961Z,97311.56
2023-03-12T04:04:36.490Z,97318.66
2023-03-12T04:07:04.873Z,97328.45
2023-03-12T04:09:34.684Z,97325.94
2023-03-12T04:12:05.929Z,97349.35
2023-03-12T04:14:35.232Z,97351.25
2023-03-12T04:17:04.943Z,97354.19
2023-03-12T04:19:33.470Z,97366.60
2023-03-12T04:22:02.212Z,97377.31
2023-03-12T04:24:31.410Z,97385.02
2023-03-12T04:26:59.745Z,97388.69
2023-03-12T04:29:28.680Z,97395.51
2023-03-12T04:31:58.106Z,97401.67
2023-03-12T04:34:26.461Z,97415.21
2023-03-12T04:36:56.888Z,97423.70
2023-03-12T04:39:26.599Z,97435.84
2023-03-12T04:41:55.191Z,97442.27
2023-03-12T04:44:24.077Z,97445.08
2023-03-12T04:46:55.460Z,97448.69
2023-03-12T04:49:25.039Z,97452.21
2023-03-12T04:51:53.517Z,97460.47
2023-03-12T04:54:22.621Z,97463.85
2023-03-12T04:56:51.412Z,97463.19
2023-03-12T04:59:26.846Z,97470.04
2023-03-12T05:01:55.845Z,97471.95
2023-03-12T05:04:27.199Z,97477.56
2023-03-12T05:06:56.187Z,97483.30
2023-03-12T05:09:24.773Z,97488.38
2023-03-12T05:11:53.152Z,97488.96
2023-03-12T05:14:23.898Z,97487.30
2023-03-12T05:16:52.568Z,97496.23
2023-03-12T05:19:22.383Z,97505.11
2023-03-12T05:21:51.478Z,97505.95
2023-03-12T05:24:22.311Z,97512.67
2023-03-12T05:26:51.412Z,97517.27
2023-03-12T05:29:22.864Z,97526.05
2023-03-12T05:31:54.777Z,97533.21
2023-03-12T05:34:23.202Z,97542.63
2023-03-12T05:36:51.723Z,97548.85
2023-03-12T05:39:23.441Z,97564.53
2023-03-12T05:41:56.944Z,97574.34
2023-03-12T05:44:27.679Z,97586.46
2023-03-12T05:46:59.154Z,97589.71
2023-03-12T05:49:30.787Z,97589.05
2023-03-12T05:51:59.777Z,97606.73
2023-03-12T05:54:29.521Z,97612.20
2023-03-12T05:56:58.475Z,97623.70
2023-03-12T05:59:28.100Z,97634.54
2023-03-12T06:01:58.256Z,97643.70
2023-03-12T06:04:27.002Z,97646.50
2023-03-12T06:06:55.473Z,97656.73
2023-03-12T06:09:24.280Z,97663.70
2023-03-12T06:11:53.764Z,97671.65
2023-03-12T06:14:22.266Z,97681.00
2023-03-12T06:16:51.839Z,97677.30
2023-03-12T06:19:20.354Z,97692.23
2023-03-12T06:21:56.616Z,97700.38
2023-03-12T06:24:25.696Z,97702.55
2023-03-12T06:27:02.579Z,97711.24
2023-03-12T06:29:31.981Z,97723.37
2023-03-12T06:32:00.694Z,97727.36
2023-03-12T06:34:34.782Z,97743.02
2023-03-12T06:37:04.286Z,97751.33
2023-03-12T06:39:32.670Z,97757.04
2023-03-12T06:42:01.477Z,97759.16
2023-03-12T06:44:30.264Z,97754.46
2023-03-12T06:46:58.728Z,97768.59
2023-03-12T06:49:32.336Z,97776.80
2023-03-12T06:52:00.649Z,97791.81
2023-03-12T06:54:31.759Z,97797.27
2023-03-12T06:57:00.363Z,97805.48
2023-03-12T06:59:29.740Z,97800.08
2023-03-12T07:01:58.424Z,97813.31
2023-03-12T07:04:27.426Z,97817.84
2023-03-12T07:06:55.908Z,97826.72
2023-03-12T07:09:28.694Z,97828.36
2023-03-12T07:11:59.119Z,97841.20
2023-03-12T07:14:27.499Z,97844.15
2023-03-12T07:16:57.019Z,97851.17
2023-03-12T07:19:25.594Z,97854.30
2023-03-12T07:21:53.979Z,97860.23
2023-03-12T07:24:23.276Z,97867.55
2023-03-12T07:26:51.761Z,97865.92
2023-03-12T07:29:20.340Z,97867.23
2023-03-12T07:31:48.929Z,97876.07
2023-03-12T07:34:17.530Z,97881.29
2023-03-12T07:36:50.896Z,97884.64
2023-03-12T07:39:19.694Z,97892.16
2023-03-12T07:41:47.980Z,97899.12
2023-03-12T07:47:20.676Z,97905.14
2023-03-12T07:49:52.083Z,97913.88
2023-03-12T07:52:20.691Z,97917.37
2023-03-12T07:54:52.964Z,97914.80
2023-03-12T07:57:22.679Z,97927.51
2023-03-12T07:59:51.201Z,97930.39
2023-03-12T08:02:20.779Z,97931.69
2023-03-12T08:04:49.509Z,97937.29
2023-03-12T08:07:18.244Z,97945.86
2023-03-12T08:09:49.664Z,97958.30
2023-03-12T08:12:22.861Z,97963.08
2023-03-12T08:14:51.413Z,97970.66
2023-03-12T08:17:20.605Z,97975.08
2023-03-12T08:19:49.167Z,97981.34
2023-03-12T08:22:18.262Z,97990.13
2023-03-12T08:24:47.651Z,97991.00
2023-03-12T08:27:17.817Z,97993.78
2023-03-12T08:29:46.374Z,97997.83
2023-03-12T08:32:16.569Z,98006.85
2023-03-12T08:34:46.922Z,98009.30
2023-03-12T08:37:15.400Z,98014.79
2023-03-12T08:39:44.404Z,98020.77
2023-03-12T08:42:13.391Z,98030.40
2023-03-12T08:44:43.202Z,98037.03
2023-03-12T08:47:12.301Z,98045.17
2023-03-12T08:49:40.579Z,98050.22
2023-03-12T08:52:09.271Z,98052.73
2023-03-12T08:54:37.749Z,98057.09
2023-03-12T08:57:06.543Z,98060.86
2023-03-12T08:59:36.661Z,98066.83
2023-03-12T09:02:07.396Z,98068.27
2023-03-12T09:04:38.156Z,98073.31
2023-03-12T09:07:06.718Z,98082.80
2023-03-12T09:09:36.125Z,98083.07
2023-03-12T09:12:05.625Z,98092.70
2023-03-12T09:17:29.625Z,98108.73
2023-03-12T09:19:58.017Z,98116.10
2023-03-12T09:22:26.383Z,98119.34
2023-03-12T09:24:55.170Z,98118.63
2023-03-12T09:27:23.651Z,98123.73
2023-03-12T09:30:00.318Z,98130.30
2023-03-12T09:32:29.857Z,98136.45
2023-03-12T09:35:05.507Z,98138.17
2023-03-12T09:37:34.576Z,98145.56
2023-03-12T09:40:06.029Z,98151.13
2023-03-12T09:43:02.164Z,98153.19
2023-03-12T09:45:37.879Z,98166.49
2023-03-12T09:48:08.231Z,98173.91
2023-03-12T09:50:43.830Z,98176.12
2023-03-12T09:53:52.000Z,98184.02
2023-03-12T09:56:21.402Z,98194.37
2023-03-12T09:58:51.833Z,98196.08
2023-03-12T10:01:33.728Z,98209.73
2023-03-12T10:04:26.222Z,98216.98
2023-03-12T10:07:15.954Z,98221.81
2023-03-12T10:10:11.162Z,98225.27
2023-03-12T10:13:18.770Z,98220.49
2023-03-12T10:16:06.053Z,98223.89
2023-03-12T10:18:48.351Z,98235.70
2023-03-12T10:21:22.937Z,98235.04
2023-03-12T10:24:19.149Z,98240.88
2023-03-12T10:26:50.432Z,98238.14
2023-03-12T10:29:34.953Z,98240.90
2023-03-12T10:32:12.448Z,98241.87
2023-03-12T10:34:49.125Z,98240.52
2023-03-12T10:37:36.480Z,98236.10
2023-03-12T10:40:06.262Z,98242.12
2023-03-12T10:42:34.634Z,98237.37
2023-03-12T10:45:06.290Z,98237.99
2023-03-12T10:47:36.721Z,98237.52
2023-03-12T10:50:25.281Z,98238.75
2023-03-12T10:53:12.678Z,98237.90
2023-03-12T10:55:41.382Z,98235.59
2023-03-12T10:58:22.721Z,98236.34
2023-03-12T11:00:58.384Z,98237.13
2023-03-12T11:03:27.621Z,98229.23
2023-03-12T11:06:02.719Z,98226.95
2023-03-12T11:08:35.335Z,98229.52
2023-03-12T11:11:05.288Z,98237.05
2023-03-12T11:13:41.920Z,98239.30
2023-03-12T11:16:16.819Z,98247.41
2023-03-12T11:19:02.246Z,98243.06
2023-03-12T11:21:38.400Z,98245.65
2023-03-12T11:24:14.244Z,98252.42
2023-03-12T11:26:42.835Z,98254.77
2023-03-12T11:29:18.520Z,98258.13
2023-03-12T11:32:15.908Z,98260.71
2023-03-12T11:34:49.762Z,98262.83
2023-03-12T11:37:49.050Z,98265.34
2023-03-12T11:40:42.518Z,98270.09
2023-03-12T11:43:16.120Z,98276.61
2023-03-12T11:46:01.092Z,98279.92
2023-03-12T11:48:52.249Z,98278.33
2023-03-12T11:51:32.767Z,98284.15
2023-03-12T11:54:19.985Z,98285.84
2023-03-12T11:56:59.425Z,98287.31
2023-03-12T11:59:31.614Z,98290.61
2023-03-12T12:02:00.244Z,98294.26
2023-03-12T12:04:41.880Z,98301.21
2023-03-12T12:07:19.468Z,98301.52
2023-03-12T12:09:53.849Z,98307.41
2023-03-12T12:12:44.282Z,98315.66
2023-03-12T12:15:18.496Z,98324.45
2023-03-12T12:18:06.025Z,98330.21
2023-03-12T12:20:59.286Z,98330.81
2023-03-12T12:23:52.752Z,98331.21
2023-03-12T12:26:50.317Z,98323.96
2023-03-12T12:29:32.368Z,98335.46
2023-03-12T12:32:02.396Z,98338.55
2023-03-12T12:34:54.880Z,98332.39
2023-03-12T12:37:49.064Z,98341.66
2023-03-12T12:40:23.618Z,98348.48
2023-03-12T12:43:30.468Z,98347.88
2023-03-12T12:46:02.684Z,98359.98
2023-03-12T12:48:59.687Z,98362.04
2023-03-12T12:51:31.098Z,98369.02
2023-03-12T12:54:05.736Z,98370.54
2023-03-12T12:56:47.658Z,98369.76
2023-03-12T12:59:23.419Z,98376.78
2023-03-12T13:01:52.942Z,98382.98
2023-03-12T13:04:38.198Z,98377.87
2023-03-12T13:07:12.926Z,98383.05
2023-03-12T13:09:43.888Z,98383.63
2023-03-12T13:12:30.785Z,98387.25
2023-03-12T13:15:00.281Z,98394.77
2023-03-12T13:17:34.560Z,98394.43
2023-03-12T13:20:21.102Z,98396.34
2023-03-12T13:22:58.608Z,98387.52
2023-03-12T13:25:36.197Z,98396.41
2023-03-12T13:28:26.896Z,98398.61
2023-03-12T13:30:55.321Z,98396.67
2023-03-12T13:33:45.516Z,98390.14
2023-03-12T13:36:16.782Z,98395.84
2023-03-12T13:39:07.106Z,98397.08
2023-03-12T13:41:36.419Z,98400.16
2023-03-12T13:44:23.319Z,98392.48
2023-03-12T13:47:03.128Z,98394.17
2023-03-12T13:50:13.476Z,98403.05
2023-03-12T13:52:47.268Z,98408.27
2023-03-12T13:55:27.189Z,98403.73
2023-03-12T13:57:55.769Z,98402.94
2023-03-12T14:00:41.758Z,98401.58
2023-03-12T14:03:40.860Z,98403.55
2023-03-12T14:06:13.354Z,98409.39
2023-03-12T14:09:08.551Z,98415.48
2023-03-12T14:11:52.489Z,98429.52
2023-03-12T14:14:41.638Z,98432.35
2023-03-12T14:17:27.657Z,98428.25
2023-03-12T14:20:01.572Z,98427.33
2023-03-12T14:22:32.191Z,98431.67
2023-03-12T14:25:37.457Z,98433.29
2023-03-12T14:28:22.618Z,98435.09
2023-03-12T14:31:02.327Z,98441.10
2023-03-12T14:33:55.105Z,98444.23
2023-03-12T14:36:26.348Z,98441.81
2023-03-12T14:39:01.323Z,98448.11
2023-03-12T14:41:31.814Z,98437.84
2023-03-12T14:44:19.136Z,98440.14
2023-03-12T14:46:56.048Z,98440.23
2023-03-12T14:49:24.595Z,98439.56
2023-03-12T14:51:52.976Z,98440.42
2023-03-12T14:54:24.338Z,98442.86
2023-03-12T14:56:54.775Z,98434.58
2023-03-12T14:59:31.598Z,98447.23
2023-03-12T15:02:14.468Z,98443.44
2023-03-12T15:04:43.973Z,98454.56
2023-03-12T15:07:18.820Z,98461.72
2023-03-12T15:09:50.509Z,98466.35
2023-03-12T15:12:34.277Z,98466.95
2023-03-12T15:15:08.161Z,98474.80
2023-03-12T15:17:37.692Z,98480.80
2023-03-12T15:20:09.866Z,98487.45
2023-03-12T15:22:38.354Z,98484.85
2023-03-12T15:25:41.434Z,98489.52
2023-03-12T15:28:15.854Z,98488.01
2023-03-12T15:30:44.880Z,98495.20
2023-03-12T15:33:18.048Z,98500.62
2023-03-12T15:36:17.406Z,98499.96
2023-03-12T15:38:51.053Z,98505.92
2023-03-12T15:41:27.028Z,98508.05
2023-03-12T15:43:56.736Z,98504.55
2023-03-12T15:46:25.592Z,98511.21
2023-03-12T15:48:55.959Z,98517.73
2023-03-12T15:51:31.991Z,98518.30
2023-03-12T15:54:29.862Z,98524.02
2023-03-12T15:57:20.257Z,98536.25
2023-03-12T16:00:16.183Z,98544.30
2023-03-12T16:03:06.276Z,98552.55
2023-03-12T16:05:35.477Z,98556.19
2023-03-12T16:08:15.791Z,98570.45
2023-03-12T16:10:44.525Z,98586.99
2023-03-12T16:13:17.411Z,98644.02
2023-03-12T16:15:47.939Z,98651.34
2023-03-12T16:18:20.043Z,98642.59
2023-03-12T16:20:49.001Z,98639.63
2023-03-12T16:23:17.887Z,98644.33
2023-03-12T16:25:51.798Z,98649.67
2023-03-12T16:28:20.726Z,98654.56
2023-03-12T16:30:50.005Z,98662.11
2023-03-12T16:33:20.415Z,98666.04
2023-03-12T16:35:49.878Z,98666.38
2023-03-12T16:38:18.198Z,98669.05
2023-03-12T16:40:54.568Z,98675.18
2023-03-12T16:43:24.683Z,98682.96
2023-03-12T16:45:53.115Z,98687.35
2023-03-12T16:48:24.531Z,98689.19
2023-03-12T16:50:55.710Z,98700.48
2023-03-12T16:53:27.420Z,98698.71
2023-03-12T16:56:00.917Z,98706.22
2023-03-12T16:58:31.546Z,98714.59
2023-03-12T17:01:01.188Z,98718.55
2023-03-12T17:03:38.364Z,98718.52
2023-03-12T17:06:08.369Z,98722.39
2023-03-12T17:08:37.250Z,98725.09
2023-03-12T17:11:19.661Z,98727.90
2023-03-12T17:13:50.807Z,98735.20
2023-03-12T17:16:21.304Z,98744.19
2023-03-12T17:18:57.025Z,98750.73
2023-03-12T17:21:26.080Z,98756.98
2023-03-12T17:23:56.753Z,98757.13
2023-03-12T17:26:25.198Z,98765.31
2023-03-12T17:28:53.889Z,98767.19
2023-03-12T17:31:25.020Z,98769.27
2023-03-12T17:33:54.029Z,98775.25
2023-03-12T17:36:24.250Z,98781.44
2023-03-12T17:38:52.731Z,98787.70
2023-03-12T17:41:26.394Z,98795.65
2023-03-12T17:44:01.776Z,98803.42
2023-03-12T17:46:31.237Z,98808.61
2023-03-12T17:49:02.572Z,98812.02
2023-03-12T17:51:31.118Z,98820.85
2023-03-12T17:53:59.583Z,98822.44
2023-03-12T17:56:28.290Z,98823.52
2023-03-12T17:58:56.692Z,98825.41
2023-03-12T18:01:25.663Z,98831.27
2023-03-12T18:03:54.559Z,98833.67
2023-03-12T18:06:26.010Z,98833.52
2023-03-12T18:08:56.438Z,98832.40
2023-03-12T18:11:25.121Z,98833.91
2023-03-12T18:13:54.627Z,98835.80
2023-03-12T18:16:24.112Z,98841.58
2023-03-12T18:18:53.129Z,98841.64
2023-03-12T18:21:22.535Z,98846.77
2023-03-12T18:23:52.401Z,98839.96
2023-03-12T18:26:21.570Z,98856.45
2023-03-12T18:28:50.439Z,98855.58
2023-03-12T18:31:18.878Z,98863.05
2023-03-12T18:33:51.915Z,98863.16
2023-03-12T18:36:20.603Z,98867.13
2023-03-12T18:38:53.390Z,98855.75
2023-03-12T18:41:22.890Z,98870.52
2023-03-12T18:43:53.966Z,98876.63
2023-03-12T18:46:24.135Z,98881.66
2023-03-12T18:48:53.666Z,98882.20
2023-03-12T18:51:22.557Z,98885.30
2023-03-12T18:53:51.044Z,98885.02
2023-03-12T18:56:23.004Z,98887.70
2023-03-12T18:58:52.306Z,98894.59
2023-03-12T19:01:21.609Z,98896.47
2023-03-12T19:03:50.514Z,98900.73
2023-03-12T19:06:19.291Z,98908.34
2023-03-12T19:08:47.816Z,98915.30
2023-03-12T19:11:17.278Z,98921.76
2023-03-12T19:13:49.671Z,98926.56
2023-03-12T19:16:22.170Z,98931.91
2023-03-12T19:18:51.230Z,98937.23
2023-03-12T19:21:19.615Z,98941.48
2023-03-12T19:23:48.090Z,98951.05
2023-03-12T19:26:16.980Z,98958.19
2023-03-12T19:28:45.359Z,98963.95
2023-03-12T19:31:15.516Z,98971.19
2023-03-12T19:33:45.102Z,98975.42
2023-03-12T19:36:13.883Z,98977.13
2023-03-12T19:38:42.564Z,98980.59
2023-03-12T19:41:13.919Z,98983.46
2023-03-12T19:43:42.398Z,98985.02
2023-03-12T19:46:13.177Z,98992.41
2023-03-12T19:48:42.641Z,98995.89
2023-03-12T19:51:11.546Z,99001.46
2023-03-12T19:53:40.528Z,99006.72
2023-03-12T19:56:09.213Z,99007.73
2023-03-12T19:58:38.311Z,99015.83
2023-03-12T20:01:06.897Z,99020.64
2023-03-12T20:04:45.679Z,99029.31
2023-03-12T20:07:14.312Z,99031.25
2023-03-12T20:09:42.694Z,99029.40
2023-03-12T20:12:11.182Z,99035.31
2023-03-12T20:14:42.528Z,99037.20
2023-03-12T20:17:13.474Z,99043.39
2023-03-12T20:19:42.971Z,99054.66
2023-03-12T20:22:11.575Z,99073.59
2023-03-12T20:24:40.345Z,99099.43
2023-03-12T20:27:08.930Z,99112.52
2023-03-12T20:29:37.317Z,99120.54
2023-03-12T20:32:06.697Z,99126.58
2023-03-12T20:34:35.332Z,99136.91
2023-03-12T20:37:07.263Z,99140.52
2023-03-12T20:39:36.257Z,99138.21
2023-03-12T20:42:04.741Z,99136.98
2023-03-12T20:44:33.533Z,99139.12
2023-03-12T20:47:02.032Z,99142.24
2023-03-12T20:49:30.605Z,99145.27
2023-03-12T20:52:00.317Z,99142.05
2023-03-12T20:54:28.699Z,99151.67
2023-03-12T20:56:57.185Z,99156.87
2023-03-12T20:59:25.772Z,99149.29
2023-03-12T21:01:54.146Z,99142.85
2023-03-12T21:04:22.835Z,99152.86
2023-03-12T21:06:51.930Z,99159.98
2023-03-12T21:09:21.955Z,99153.05
2023-03-12T21:11:50.640Z,99148.65
2023-03-12T21:14:20.152Z,99144.23
2023-03-12T21:16:49.693Z,99150.45
2023-03-12T21:19:19.265Z,99155.45
2023-03-12T21:21:47.960Z,99158.76
2023-03-12T21:24:16.437Z,99158.05
2023-03-12T21:26:47.286Z,99164.56
2023-03-12T21:29:15.862Z,99167.95
2023-03-12T21:31:44.344Z,99170.69
2023-03-12T21:34:12.758Z,99175.10
2023-03-12T21:36:41.108Z,99179.68
2023-03-12T21:39:09.601Z,99174.79
2023-03-12T21:41:39.404Z,99174.15
2023-03-12T21:44:10.858Z,99184.05
2023-03-12T21:46:39.367Z,99187.92
2023-03-12T21:49:08.052Z,99191.06
2023-03-12T21:51:39.519Z,99201.48
2023-03-12T21:54:08.168Z,99201.04
2023-03-12T21:56:36.548Z,99196.38
2023-03-12T21:59:05.029Z,99194.93
2023-03-12T22:01:33.769Z,99204.48
2023-03-12T22:04:03.552Z,99215.86
2023-03-12T22:06:32.427Z,99224.91
2023-03-12T22:09:00.909Z,99231.46
2023-03-12T22:11:30.011Z,99237.58
2023-03-12T22:13:58.389Z,99241.92
2023-03-12T22:16:27.684Z,99244.44
2023-03-12T22:18:56.898Z,99246.65
2023-03-12T22:21:25.272Z,99253.98
2023-03-12T22:23:54.372Z,99257.60
2023-03-12T22:26:24.604Z,99261.95
2023-03-12T22:28:57.681Z,99267.80
2023-03-12T22:31:27.510Z,99276.27
2023-03-12T22:33:56.693Z,99277.52
2023-03-12T22:36:25.191Z,99281.64
2023-03-12T22:38:54.072Z,99286.58
2023-03-12T22:41:25.853Z,99294.78
2023-03-12T22:43:56.169Z,99296.98
2023-03-12T22:46:28.875Z,99301.17
2023-03-12T22:48:59.111Z,99311.02
2023-03-12T22:51:27.973Z,99313.14
2023-03-12T22:53:57.274Z,99317.50
2023-03-12T22:56:26.078Z,99324.98
2023-03-12T22:58:55.776Z,99328.39
2023-03-12T23:01:24.468Z,99331.45
2023-03-12T23:03:57.233Z,99332.80
2023-03-12T23:06:26.949Z,99331.14
2023-03-12T23:08:55.429Z,99335.70
2023-03-12T23:11:28.419Z,99341.55
2023-03-12T23:13:58.132Z,99348.80
2023-03-12T23:16:26.967Z,99358.55
2023-03-12T23:18:56.849Z,99358.15
2023-03-12T23:21:26.055Z,99366.44
2023-03-12T23:24:02.819Z,99373.59
2023-03-12T23:26:34.168Z,99376.64
2023-03-12T23:29:02.548Z,99379.31
2023-03-12T23:31:31.013Z,99379.38
2023-03-12T23:33:59.720Z,99378.55
2023-03-12T23:36:31.385Z,99376.36
2023-03-12T23:39:00.685Z,99378.77
2023-03-12T23:41:32.273Z,99378.15
2023-03-12T23:44:02.208Z,99385.09
2023-03-12T23:46:31.465Z,99383.95
2023-03-12T23:49:00.218Z,99383.25
2023-03-12T23:51:31.808Z,99390.36
2023-03-12T23:54:05.534Z,99392.27
2023-03-12T23:56:36.695Z,99393.84
2023-03-12T23:59:05.784Z,99379.67
